Time;durP1;ratioP1;P1;durP2;ratioP2;P2;SDS_P1;SDS_P2;PMS_P1;PMS_P2;Temp;Humidity;BMP_temperature;BMP_pressure;BME280_temperature;BME280_humidity;BME280_pressure;Samples;Min_cycle;Max_cycle;Signal;HPM_P1;HPM_P2
2021/09/09 00:00:47;;;;;;;26.55;15.40;;;13.30;67.60;;;;;;5055142;28;20032;-72
2021/09/09 00:03:12;;;;;;;22.33;14.38;;;13.30;67.50;;;;;;5043297;28;20028;-72
2021/09/09 00:05:38;;;;;;;23.15;14.27;;;13.30;67.60;;;;;;5033959;28;20053;-72
2021/09/09 00:08:04;;;;;;;23.20;13.95;;;13.30;67.70;;;;;;5033978;28;20033;-72
2021/09/09 00:10:30;;;;;;;27.27;15.60;;;13.20;67.60;;;;;;5034106;28;20096;-72
2021/09/09 00:12:56;;;;;;;31.00;15.55;;;13.20;67.50;;;;;;5035257;28;20028;-72
2021/09/09 00:15:21;;;;;;;22.25;14.02;;;13.20;67.50;;;;;;5034023;28;20033;-71
2021/09/09 00:17:47;;;;;;;21.70;13.07;;;13.20;67.40;;;;;;5033792;28;20033;-72
2021/09/09 00:20:13;;;;;;;23.00;14.40;;;13.20;67.40;;;;;;5035074;28;20114;-72
2021/09/09 00:22:40;;;;;;;24.90;14.40;;;13.20;67.50;;;;;;5033658;28;20478;-72
2021/09/09 00:25:07;;;;;;;28.13;15.48;;;13.20;67.50;;;;;;5033581;28;20021;-72
2021/09/09 00:27:33;;;;;;;28.83;14.75;;;13.10;67.60;;;;;;5032395;28;20029;-72
2021/09/09 00:29:59;;;;;;;25.15;13.65;;;13.20;67.70;;;;;;5045139;28;20067;-73
2021/09/09 00:32:24;;;;;;;22.92;13.88;;;13.20;67.70;;;;;;5034642;28;20025;-71
2021/09/09 00:34:50;;;;;;;28.80;15.82;;;13.10;67.90;;;;;;5033487;28;20029;-72
2021/09/09 00:37:16;;;;;;;31.85;15.30;;;13.10;67.90;;;;;;5033290;28;20025;-72
2021/09/09 00:39:41;;;;;;;24.25;13.75;;;13.10;67.90;;;;;;5034715;28;20092;-72
2021/09/09 00:42:07;;;;;;;28.70;13.52;;;13.10;68.00;;;;;;5034586;28;20029;-72
2021/09/09 00:44:33;;;;;;;26.20;14.57;;;13.10;68.00;;;;;;5033423;28;20129;-73
2021/09/09 00:47:07;;;;;;;22.30;13.93;;;13.10;68.20;;;;;;5033289;28;20029;-77
2021/09/09 00:49:35;;;;;;;20.50;12.52;;;13.10;68.50;;;;;;5033336;28;20025;-72
2021/09/09 00:52:02;;;;;;;18.92;12.25;;;13.10;68.30;;;;;;5034454;28;20032;-70
2021/09/09 00:54:28;;;;;;;23.17;12.20;;;13.20;68.30;;;;;;5034219;28;20041;-72
2021/09/09 00:56:53;;;;;;;17.83;11.68;;;13.20;68.20;;;;;;5033742;28;20022;-73
2021/09/09 00:59:19;;;;;;;18.63;12.00;;;13.20;68.30;;;;;;5053605;28;20033;-73
2021/09/09 01:01:46;;;;;;;17.17;11.43;;;13.20;68.20;;;;;;5054136;28;20120;-72
2021/09/09 01:04:12;;;;;;;19.67;12.27;;;13.30;68.20;;;;;;5052654;28;20497;-73
2021/09/09 01:06:38;;;;;;;23.42;12.05;;;13.20;68.10;;;;;;5052910;28;20033;-73
2021/09/09 01:09:04;;;;;;;21.95;12.10;;;13.20;68.20;;;;;;5052939;28;20040;-73
2021/09/09 01:11:29;;;;;;;23.35;13.07;;;13.20;68.40;;;;;;5054028;28;20033;-73
2021/09/09 01:14:05;;;;;;;18.00;12.25;;;13.20;68.50;;;;;;5053896;28;20379;-72
2021/09/09 01:16:31;;;;;;;21.27;12.68;;;13.10;68.70;;;;;;5053102;28;20139;-72
2021/09/09 01:18:57;;;;;;;17.73;12.50;;;13.10;68.70;;;;;;5053619;28;20511;-72
2021/09/09 01:21:23;;;;;;;16.92;10.93;;;13.10;68.80;;;;;;5052724;28;20071;-72
2021/09/09 01:23:53;;;;;;;18.05;11.38;;;13.10;68.80;;;;;;5047695;28;20032;-72
2021/09/09 01:26:19;;;;;;;17.60;12.00;;;13.10;68.80;;;;;;5051245;28;20029;-74
2021/09/09 01:28:44;;;;;;;19.23;12.55;;;13.00;68.70;;;;;;5052248;28;20029;-72
2021/09/09 01:31:12;;;;;;;18.85;12.00;;;13.00;68.80;;;;;;5052411;28;20391;-72
2021/09/09 01:33:38;;;;;;;18.10;12.02;;;13.00;68.90;;;;;;5053497;28;20043;-73
2021/09/09 01:36:03;;;;;;;17.67;12.32;;;13.00;69.00;;;;;;5052287;28;20024;-72
2021/09/09 01:38:29;;;;;;;19.45;12.02;;;12.90;68.90;;;;;;5052015;28;20044;-72
2021/09/09 01:40:55;;;;;;;20.63;12.07;;;12.90;69.10;;;;;;5053086;28;20033;-72
2021/09/09 01:43:20;;;;;;;19.02;12.23;;;12.90;69.20;;;;;;5052746;28;20111;-73
2021/09/09 01:45:46;;;;;;;21.83;12.07;;;12.80;69.30;;;;;;5052341;28;20430;-73
2021/09/09 01:48:12;;;;;;;21.15;12.45;;;12.80;69.40;;;;;;5053554;28;20380;-73
2021/09/09 01:50:38;;;;;;;18.00;12.88;;;12.80;69.80;;;;;;5053647;28;20086;-72
2021/09/09 01:53:04;;;;;;;21.25;13.70;;;12.80;69.90;;;;;;5053294;28;20048;-71
2021/09/09 01:55:30;;;;;;;19.63;15.00;;;12.70;69.80;;;;;;5041080;28;20033;-72
2021/09/09 01:57:55;;;;;;;22.17;15.02;;;12.80;70.00;;;;;;5033465;28;20025;-72
2021/09/09 02:00:21;;;;;;;20.73;13.73;;;12.70;70.00;;;;;;5033353;28;20071;-69
2021/09/09 02:02:47;;;;;;;21.33;13.73;;;12.70;70.10;;;;;;5032346;28;20439;-72
2021/09/09 02:05:13;;;;;;;20.70;12.68;;;12.70;70.10;;;;;;5033441;28;20088;-73
2021/09/09 02:07:39;;;;;;;22.55;12.38;;;12.70;70.10;;;;;;5031977;28;20079;-75
2021/09/09 02:10:07;;;;;;;20.70;12.77;;;12.70;70.20;;;;;;5033445;28;20476;-72
2021/09/09 02:12:33;;;;;;;18.65;11.73;;;12.70;70.30;;;;;;5033201;28;20092;-73
2021/09/09 02:14:59;;;;;;;21.88;12.30;;;12.70;70.30;;;;;;5032204;28;20112;-73
2021/09/09 02:17:24;;;;;;;19.73;12.15;;;12.60;70.40;;;;;;5031957;28;20468;-72
2021/09/09 02:19:50;;;;;;;17.67;11.35;;;12.70;70.50;;;;;;5031975;28;20171;-73
2021/09/09 02:22:16;;;;;;;20.92;12.10;;;12.60;70.50;;;;;;5031662;28;20446;-72
2021/09/09 02:24:45;;;;;;;17.20;11.85;;;12.60;70.60;;;;;;5032077;28;20036;-71
2021/09/09 02:27:15;;;;;;;23.38;12.77;;;12.60;70.70;;;;;;5031494;28;20021;-72
2021/09/09 02:29:42;;;;;;;21.33;12.75;;;12.50;70.80;;;;;;5031689;28;20037;-70
2021/09/09 02:32:08;;;;;;;23.38;13.43;;;12.50;70.90;;;;;;5033890;28;20171;-72
2021/09/09 02:34:34;;;;;;;19.35;13.02;;;12.50;70.90;;;;;;5035678;28;20029;-72
2021/09/09 02:37:00;;;;;;;19.98;13.02;;;12.50;71.00;;;;;;5035519;28;20026;-71
2021/09/09 02:39:26;;;;;;;22.73;13.40;;;12.40;71.10;;;;;;5036716;28;20036;-74
2021/09/09 02:41:52;;;;;;;19.85;12.80;;;12.40;71.20;;;;;;5036889;28;20029;-72
2021/09/09 02:44:18;;;;;;;18.33;12.77;;;12.40;71.40;;;;;;5036130;28;20480;-73
2021/09/09 02:46:43;;;;;;;18.00;12.32;;;12.40;71.40;;;;;;5035851;28;20121;-72
2021/09/09 02:49:09;;;;;;;18.08;12.20;;;12.40;71.40;;;;;;5034264;28;20498;-71
2021/09/09 02:51:35;;;;;;;19.63;12.25;;;12.40;71.50;;;;;;5035385;28;20088;-72
2021/09/09 02:54:01;;;;;;;19.73;11.98;;;12.30;71.50;;;;;;5035642;28;20029;-72
2021/09/09 02:56:26;;;;;;;20.83;12.55;;;12.30;71.50;;;;;;5035344;28;20116;-72
2021/09/09 02:58:52;;;;;;;20.00;13.55;;;12.30;71.60;;;;;;5035125;28;20026;-72
2021/09/09 03:01:18;;;;;;;21.25;14.10;;;12.30;71.70;;;;;;5035110;28;20388;-72
2021/09/09 03:03:43;;;;;;;19.75;13.18;;;12.30;71.70;;;;;;5035024;28;20021;-73
2021/09/09 03:06:09;;;;;;;20.60;13.57;;;12.30;71.80;;;;;;5035339;28;20156;-73
2021/09/09 03:08:35;;;;;;;20.63;13.95;;;12.30;71.90;;;;;;5036324;28;20524;-73
2021/09/09 03:11:02;;;;;;;25.25;13.80;;;12.30;71.90;;;;;;5040618;28;20028;-73
2021/09/09 03:13:28;;;;;;;20.88;14.40;;;12.30;72.00;;;;;;5034182;28;20029;-72
2021/09/09 03:15:54;;;;;;;24.83;13.68;;;12.30;72.00;;;;;;5040374;28;20118;-73
2021/09/09 03:18:19;;;;;;;21.75;14.00;;;12.30;72.00;;;;;;5053917;28;20471;-76
2021/09/09 03:20:45;;;;;;;23.13;14.77;;;12.30;72.00;;;;;;5054909;28;20032;-73
2021/09/09 03:23:11;;;;;;;19.90;13.30;;;12.20;72.10;;;;;;5054759;28;20494;-72
2021/09/09 03:25:36;;;;;;;22.20;14.00;;;12.30;72.10;;;;;;5054681;28;20029;-73
2021/09/09 03:28:02;;;;;;;20.50;13.30;;;12.30;72.10;;;;;;5054864;28;20029;-73
2021/09/09 03:30:28;;;;;;;25.10;13.70;;;12.30;72.20;;;;;;5054727;28;20076;-73
2021/09/09 03:32:54;;;;;;;19.17;12.95;;;12.30;72.30;;;;;;5055896;28;20100;-73
2021/09/09 03:35:19;;;;;;;19.30;13.20;;;12.30;72.30;;;;;;5054259;28;20447;-72
2021/09/09 03:37:45;;;;;;;20.95;13.02;;;12.40;72.20;;;;;;5055763;28;20380;-73
2021/09/09 03:40:12;;;;;;;20.40;12.93;;;12.60;72.10;;;;;;5053137;28;20047;-73
2021/09/09 03:42:37;;;;;;;20.92;12.63;;;12.70;71.80;;;;;;5054029;28;20055;-72
2021/09/09 03:45:04;;;;;;;30.58;12.90;;;12.90;71.40;;;;;;5054631;28;20467;-72
2021/09/09 03:47:30;;;;;;;25.52;15.68;;;13.10;71.00;;;;;;5055948;28;20055;-73
2021/09/09 03:49:56;;;;;;;21.30;13.65;;;13.30;70.60;;;;;;5054711;28;20041;-72
2021/09/09 03:52:21;;;;;;;18.75;12.05;;;13.50;70.10;;;;;;5054591;28;20468;-73
2021/09/09 03:54:47;;;;;;;20.02;12.30;;;13.60;69.60;;;;;;5055540;28;20510;-72
2021/09/09 03:57:13;;;;;;;19.67;11.70;;;13.90;69.10;;;;;;5054106;28;20090;-73
2021/09/09 03:59:38;;;;;;;21.23;12.10;;;14.00;68.50;;;;;;5053948;28;20040;-74
2021/09/09 04:02:04;;;;;;;18.98;11.95;;;14.30;68.10;;;;;;5044223;28;20121;-73
2021/09/09 04:04:30;;;;;;;19.35;12.35;;;14.50;67.50;;;;;;5034634;28;20068;-73
2021/09/09 04:06:57;;;;;;;16.65;11.00;;;14.80;67.00;;;;;;5032811;28;20639;-72
2021/09/09 04:09:23;;;;;;;15.25;10.27;;;15.10;66.30;;;;;;5035459;28;20759;-68
2021/09/09 04:11:49;;;;;;;18.92;11.20;;;15.40;65.30;;;;;;5033767;28;20027;-69
2021/09/09 04:14:15;;;;;;;21.45;10.13;;;15.70;64.50;;;;;;5044444;28;20055;-69
2021/09/09 04:16:40;;;;;;;20.15;10.75;;;16.00;63.90;;;;;;5053324;28;20029;-71
2021/09/09 04:19:06;;;;;;;19.70;10.23;;;16.20;63.40;;;;;;5054979;28;20533;-68
2021/09/09 04:21:32;;;;;;;17.67;10.60;;;16.50;62.80;;;;;;5039413;28;20411;-69
2021/09/09 04:23:58;;;;;;;21.52;11.50;;;16.90;62.00;;;;;;5035980;28;20033;-68
2021/09/09 04:26:23;;;;;;;24.45;13.35;;;17.30;61.20;;;;;;5038401;28;20025;-69
2021/09/09 04:28:49;;;;;;;19.77;11.55;;;17.60;60.50;;;;;;5054755;28;20090;-68
2021/09/09 04:31:15;;;;;;;19.02;11.93;;;17.90;59.80;;;;;;5047243;28;20020;-69
2021/09/09 04:33:41;;;;;;;17.98;11.50;;;18.30;59.20;;;;;;5054095;28;20150;-69
2021/09/09 04:36:07;;;;;;;20.10;12.27;;;18.60;58.30;;;;;;5037785;28;20048;-69
2021/09/09 04:38:32;;;;;;;20.70;12.65;;;19.00;57.60;;;;;;5034124;28;20033;-70
2021/09/09 04:40:58;;;;;;;19.52;12.55;;;19.40;56.90;;;;;;5035262;28;20025;-71
2021/09/09 04:43:24;;;;;;;26.88;13.27;;;19.60;56.20;;;;;;5032962;28;20033;-69
2021/09/09 04:45:50;;;;;;;19.92;12.57;;;19.90;55.60;;;;;;5038705;28;20110;-71
2021/09/09 04:48:15;;;;;;;19.98;12.13;;;20.10;55.10;;;;;;5054034;28;20032;-68
2021/09/09 04:50:41;;;;;;;17.70;12.93;;;20.30;54.80;;;;;;5045384;28;20021;-72
2021/09/09 04:53:07;;;;;;;18.17;10.93;;;20.60;54.10;;;;;;5044036;28;20113;-73
2021/09/09 04:55:36;;;;;;;16.90;10.88;;;20.90;53.70;;;;;;5043740;28;20036;-73
2021/09/09 04:58:02;;;;;;;15.52;10.23;;;21.10;52.80;;;;;;5046921;28;20034;-75
2021/09/09 05:00:28;;;;;;;20.45;10.48;;;21.30;52.40;;;;;;5040048;28;20916;-74
2021/09/09 05:02:54;;;;;;;18.77;10.88;;;21.60;51.90;;;;;;5050659;28;20079;-71
2021/09/09 05:05:19;;;;;;;15.10;10.30;;;21.90;51.40;;;;;;5045696;28;20077;-76
2021/09/09 05:07:45;;;;;;;17.98;10.15;;;22.10;51.00;;;;;;5036113;28;20029;-76
2021/09/09 05:10:12;;;;;;;20.35;10.27;;;22.30;50.60;;;;;;5037013;28;20025;-75
2021/09/09 05:12:38;;;;;;;17.00;9.82;;;22.60;50.20;;;;;;5034073;28;20051;-71
2021/09/09 05:15:04;;;;;;;20.17;10.13;;;22.80;49.60;;;;;;5041802;28;20487;-72
2021/09/09 05:17:30;;;;;;;20.63;9.82;;;23.20;49.30;;;;;;5050233;28;20462;-75
2021/09/09 05:19:56;;;;;;;18.45;9.98;;;23.50;48.60;;;;;;5042698;28;20107;-73
2021/09/09 05:22:21;;;;;;;17.88;10.32;;;23.80;48.20;;;;;;5064124;28;20055;-75
2021/09/09 05:24:47;;;;;;;17.88;10.95;;;24.00;47.60;;;;;;5055598;28;20033;-72
2021/09/09 05:27:13;;;;;;;17.80;11.02;;;24.10;47.20;;;;;;5052154;28;20027;-72
2021/09/09 05:29:39;;;;;;;16.52;10.70;;;24.30;47.00;;;;;;5039056;28;20029;-73
2021/09/09 05:32:05;;;;;;;22.40;11.07;;;24.60;46.90;;;;;;5045106;28;20108;-73
2021/09/09 05:34:31;;;;;;;17.25;10.65;;;24.80;46.60;;;;;;5050258;28;20033;-73
2021/09/09 05:36:57;;;;;;;18.40;11.30;;;25.10;46.30;;;;;;5033705;28;20030;-80
2021/09/09 05:39:23;;;;;;;21.02;10.38;;;25.30;45.90;;;;;;5033250;28;20621;-73
2021/09/09 05:41:49;;;;;;;19.40;11.15;;;25.60;45.50;;;;;;5044763;28;20360;-73
2021/09/09 05:44:14;;;;;;;19.63;11.90;;;25.80;45.40;;;;;;5036978;28;20029;-74
2021/09/09 05:46:40;;;;;;;19.98;11.57;;;26.10;44.90;;;;;;5036991;28;20053;-71
2021/09/09 05:49:06;;;;;;;24.00;11.93;;;26.40;44.70;;;;;;5037777;28;20026;-74
2021/09/09 05:51:31;;;;;;;24.48;12.45;;;26.80;44.40;;;;;;5048664;28;20025;-74
2021/09/09 05:54:06;;;;;;;27.42;13.05;;;27.20;44.00;;;;;;5051152;28;20033;-73
2021/09/09 05:56:32;;;;;;;23.48;14.00;;;27.60;43.70;;;;;;5042969;28;20032;-74
2021/09/09 05:58:58;;;;;;;30.02;16.55;;;27.90;43.30;;;;;;5049270;28;20075;-74
2021/09/09 06:01:29;;;;;;;29.40;18.10;;;28.10;43.00;;;;;;5048997;28;20116;-73
2021/09/09 06:03:56;;;;;;;27.50;17.83;;;28.30;42.80;;;;;;5036236;28;20036;-71
2021/09/09 06:06:25;;;;;;;26.75;15.50;;;28.50;42.40;;;;;;5043574;28;20045;-74
2021/09/09 06:08:50;;;;;;;21.50;14.43;;;28.70;42.20;;;;;;5040321;28;20032;-73
2021/09/09 06:11:16;;;;;;;20.02;13.75;;;29.00;41.90;;;;;;5046956;28;20115;-73
2021/09/09 06:13:42;;;;;;;19.48;13.02;;;29.30;41.40;;;;;;5043909;28;20461;-78
2021/09/09 06:16:07;;;;;;;19.60;12.65;;;29.50;41.10;;;;;;5040684;28;21470;-82
2021/09/09 06:18:34;;;;;;;20.17;12.60;;;29.30;40.80;;;;;;5056054;28;20127;-70
2021/09/09 06:21:00;;;;;;;17.52;12.35;;;29.40;40.90;;;;;;5053659;28;20029;-76
2021/09/09 06:23:25;;;;;;;18.42;11.30;;;29.60;41.10;;;;;;5056039;28;20071;-77
2021/09/09 06:25:51;;;;;;;19.25;11.35;;;29.80;41.00;;;;;;5056329;28;20383;-74
2021/09/09 06:28:17;;;;;;;17.30;11.32;;;29.90;40.80;;;;;;5055587;28;20040;-74
2021/09/09 06:30:42;;;;;;;20.48;11.98;;;30.10;40.70;;;;;;5056278;28;20041;-72
2021/09/09 06:33:08;;;;;;;19.70;11.70;;;30.30;40.50;;;;;;5063380;28;20029;-64
2021/09/09 06:35:34;;;;;;;18.98;10.85;;;30.20;40.90;;;;;;5064362;28;20025;-74
2021/09/09 06:38:00;;;;;;;17.00;10.43;;;30.60;40.70;;;;;;5053817;28;20112;-76
2021/09/09 06:40:26;;;;;;;16.42;10.05;;;30.80;40.50;;;;;;5052962;28;20064;-74
2021/09/09 06:42:51;;;;;;;17.15;10.80;;;31.20;40.10;;;;;;5031812;28;20638;-73
2021/09/09 06:45:17;;;;;;;17.80;10.55;;;31.50;39.60;;;;;;5031361;28;20442;-74
2021/09/09 06:47:43;;;;;;;15.98;10.57;;;31.40;39.50;;;;;;5031838;28;20075;-74
2021/09/09 06:50:09;;;;;;;19.63;10.98;;;31.40;39.60;;;;;;5032234;28;20479;-74
2021/09/09 06:52:34;;;;;;;18.90;10.73;;;31.70;39.70;;;;;;5032046;28;20056;-74
2021/09/09 06:55:00;;;;;;;19.10;11.00;;;32.00;39.30;;;;;;5032356;28;20392;-74
2021/09/09 06:57:26;;;;;;;19.27;11.20;;;32.10;38.90;;;;;;5035468;28;20061;-75
2021/09/09 06:59:52;;;;;;;17.42;10.48;;;32.10;39.00;;;;;;5034272;28;20033;-74
2021/09/09 07:02:17;;;;;;;19.23;10.80;;;32.30;38.50;;;;;;5035591;28;20033;-76
2021/09/09 07:04:43;;;;;;;21.83;11.00;;;32.30;38.60;;;;;;5033885;28;20132;-74
2021/09/09 07:07:09;;;;;;;14.07;10.32;;;32.30;38.60;;;;;;5033110;28;20033;-74
2021/09/09 07:09:34;;;;;;;18.63;10.30;;;32.40;38.60;;;;;;5034852;28;20036;-74
2021/09/09 07:12:00;;;;;;;21.95;12.07;;;32.60;38.50;;;;;;5035937;28;20025;-74
2021/09/09 07:14:26;;;;;;;23.77;13.60;;;32.70;38.60;;;;;;5034536;28;20034;-75
2021/09/09 07:16:52;;;;;;;19.60;12.95;;;33.00;38.50;;;;;;5034509;28;20033;-74
2021/09/09 07:19:18;;;;;;;20.45;12.23;;;33.00;38.50;;;;;;5034133;28;20044;-75
2021/09/09 07:21:45;;;;;;;20.33;11.73;;;33.20;38.50;;;;;;5035604;28;20464;-73
2021/09/09 07:24:11;;;;;;;21.80;11.75;;;33.50;38.40;;;;;;5035175;28;20021;-74
2021/09/09 07:26:36;;;;;;;16.10;11.20;;;33.60;38.30;;;;;;5035804;28;20036;-75
2021/09/09 07:29:02;;;;;;;21.05;11.68;;;33.40;37.90;;;;;;5034548;28;20029;-74
2021/09/09 07:31:28;;;;;;;18.90;11.73;;;33.30;38.00;;;;;;5035423;28;20439;-73
2021/09/09 07:33:53;;;;;;;22.35;13.20;;;33.30;38.70;;;;;;5034144;28;20043;-74
2021/09/09 07:36:19;;;;;;;19.30;12.07;;;33.40;39.10;;;;;;5035664;28;20072;-74
2021/09/09 07:38:45;;;;;;;20.70;13.85;;;33.30;39.10;;;;;;5035238;28;20030;-74
2021/09/09 07:41:10;;;;;;;20.60;11.95;;;33.20;39.00;;;;;;5033436;28;20026;-74
2021/09/09 07:43:39;;;;;;;22.13;13.45;;;33.10;39.70;;;;;;5035427;28;20026;-77
2021/09/09 07:46:05;;;;;;;18.88;13.65;;;33.00;39.70;;;;;;5034029;28;20029;-74
2021/09/09 07:48:30;;;;;;;26.70;13.88;;;33.00;39.90;;;;;;5035194;28;20029;-74
2021/09/09 07:50:56;;;;;;;22.52;12.98;;;32.90;39.80;;;;;;5034218;28;20049;-74
2021/09/09 07:53:22;;;;;;;21.13;13.55;;;32.80;40.20;;;;;;5034014;28;20052;-74
2021/09/09 07:55:47;;;;;;;22.95;13.48;;;32.80;40.30;;;;;;5034066;28;20120;-73
2021/09/09 07:58:15;;;;;;;24.30;14.30;;;32.90;40.00;;;;;;5035187;28;20487;-74
2021/09/09 08:00:41;;;;;;;24.10;13.95;;;32.90;40.20;;;;;;5035362;28;20030;-72
2021/09/09 08:03:06;;;;;;;20.10;13.82;;;33.00;40.40;;;;;;5033944;28;20139;-73
2021/09/09 08:05:32;;;;;;;26.02;16.13;;;33.00;39.80;;;;;;5033760;28;20054;-73
2021/09/09 08:07:58;;;;;;;31.52;18.60;;;33.10;39.70;;;;;;5034959;28;20033;-78
2021/09/09 08:10:23;;;;;;;29.52;17.27;;;32.90;39.60;;;;;;5035122;28;20032;-75
2021/09/09 08:12:52;;;;;;;26.58;15.15;;;32.90;40.20;;;;;;5033616;28;20091;-74
2021/09/09 08:15:18;;;;;;;22.70;14.88;;;32.90;41.10;;;;;;5034310;28;20438;-79
2021/09/09 08:17:44;;;;;;;25.75;14.82;;;32.90;40.60;;;;;;5034996;28;20029;-74
2021/09/09 08:20:13;;;;;;;30.77;15.73;;;32.90;40.00;;;;;;5033482;28;20036;-75
2021/09/09 08:22:40;;;;;;;29.30;15.32;;;33.20;40.30;;;;;;5034748;28;20084;-79
2021/09/09 08:25:06;;;;;;;33.80;15.43;;;33.20;40.30;;;;;;5034603;28;20100;-75
2021/09/09 08:27:32;;;;;;;24.15;14.52;;;33.30;39.90;;;;;;5033483;28;20026;-74
2021/09/09 08:29:59;;;;;;;27.50;14.93;;;33.30;39.90;;;;;;5033090;28;20034;-75
2021/09/09 08:32:25;;;;;;;26.20;13.45;;;33.40;40.20;;;;;;5034452;28;20383;-74
2021/09/09 08:34:53;;;;;;;24.50;13.27;;;33.50;39.80;;;;;;5033314;28;20022;-74
2021/09/09 08:37:19;;;;;;;19.33;13.63;;;33.50;39.60;;;;;;5033072;28;20026;-74
2021/09/09 08:39:44;;;;;;;19.95;12.70;;;33.60;39.50;;;;;;5033577;28;20098;-74
2021/09/09 08:42:14;;;;;;;18.92;11.88;;;33.50;39.10;;;;;;5033619;28;20124;-74
2021/09/09 08:44:39;;;;;;;26.27;13.80;;;33.40;39.10;;;;;;5034517;28;20058;-72
2021/09/09 08:47:09;;;;;;;19.88;12.88;;;33.30;39.30;;;;;;5033150;28;20127;-74
2021/09/09 08:49:34;;;;;;;20.45;12.65;;;33.30;38.90;;;;;;5032993;28;20030;-74
2021/09/09 08:52:00;;;;;;;19.05;12.30;;;33.30;39.20;;;;;;5033280;28;20090;-74
2021/09/09 08:54:26;;;;;;;16.38;12.13;;;33.30;39.40;;;;;;5033102;28;20519;-73
2021/09/09 08:56:52;;;;;;;20.17;11.00;;;33.50;39.20;;;;;;5032998;28;20160;-74
2021/09/09 08:59:18;;;;;;;18.63;10.90;;;33.60;39.30;;;;;;5034547;28;20108;-77
2021/09/09 09:02:10;;;;;;;15.70;10.98;;;33.60;39.20;;;;;;5033102;28;20124;-73
2021/09/09 09:04:38;;;;;;;24.60;11.70;;;33.80;38.90;;;;;;5032730;28;20056;-73
2021/09/09 09:07:06;;;;;;;22.02;12.50;;;34.00;38.70;;;;;;5032842;28;20121;-73
2021/09/09 09:09:36;;;;;;;20.00;12.15;;;34.10;38.60;;;;;;5032887;28;20116;-74
2021/09/09 09:12:07;;;;;;;21.02;11.73;;;34.00;38.30;;;;;;5032345;28;20022;-73
2021/09/09 09:14:33;;;;;;;18.45;10.55;;;34.10;38.50;;;;;;5034336;28;20034;-74
2021/09/09 09:17:01;;;;;;;16.75;9.93;;;34.20;38.30;;;;;;5032604;28;20120;-73
2021/09/09 09:19:41;;;;;;;15.27;9.82;;;34.30;38.30;;;;;;5032963;28;20030;-73
2021/09/09 09:22:10;;;;;;;17.92;10.55;;;34.40;38.60;;;;;;5034072;28;20021;-74
2021/09/09 09:25:02;;;;;;;15.10;11.02;;;34.40;38.60;;;;;;5034083;28;20376;-74
2021/09/09 09:27:28;;;;;;;17.02;10.48;;;34.40;37.70;;;;;;5031373;28;20116;-73
2021/09/09 09:30:01;;;;;;;17.20;10.10;;;34.40;37.80;;;;;;5033892;28;20167;-73
2021/09/09 09:32:27;;;;;;;17.52;8.80;;;34.50;37.80;;;;;;5034015;28;20021;-73
2021/09/09 09:35:15;;;;;;;15.05;8.60;;;34.50;38.00;;;;;;5034065;28;20040;-74
2021/09/09 09:38:01;;;;;;;14.65;8.50;;;34.50;38.00;;;;;;5032224;28;20029;-74
2021/09/09 09:40:32;;;;;;;13.05;8.05;;;34.60;37.70;;;;;;5033788;28;20174;-73
2021/09/09 09:42:59;;;;;;;14.15;8.40;;;34.60;37.50;;;;;;5031746;28;20053;-76
2021/09/09 09:45:25;;;;;;;14.05;9.10;;;34.60;37.70;;;;;;5032342;28;20026;-74
2021/09/09 09:47:51;;;;;;;15.20;8.63;;;34.60;38.10;;;;;;5033440;28;20057;-73
2021/09/09 09:50:22;;;;;;;15.52;9.00;;;34.70;38.70;;;;;;5032287;28;20065;-73
2021/09/09 09:52:49;;;;;;;15.52;9.00;;;34.60;38.60;;;;;;5032369;28;20353;-73
2021/09/09 09:55:15;;;;;;;16.75;10.20;;;34.70;38.50;;;;;;5032225;28;20021;-74
2021/09/09 09:57:59;;;;;;;23.05;10.68;;;34.60;38.50;;;;;;5033335;28;20411;-75
2021/09/09 10:00:24;;;;;;;14.27;9.63;;;34.50;38.80;;;;;;5032137;28;20395;-74
2021/09/09 10:02:54;;;;;;;15.52;9.93;;;34.40;39.30;;;;;;5031999;28;20022;-74
2021/09/09 10:05:21;;;;;;;21.33;10.10;;;34.50;39.80;;;;;;5031945;28;20041;-74
2021/09/09 10:07:47;;;;;;;16.45;9.20;;;34.60;39.70;;;;;;5032535;28;20074;-75
2021/09/09 10:10:13;;;;;;;15.50;9.02;;;34.70;39.50;;;;;;5033247;28;20132;-74
2021/09/09 10:12:39;;;;;;;19.65;9.20;;;34.80;39.10;;;;;;5031675;28;20029;-74
2021/09/09 10:15:06;;;;;;;14.15;10.00;;;34.90;39.10;;;;;;5031907;28;20029;-74
2021/09/09 10:17:33;;;;;;;15.55;8.95;;;34.90;38.60;;;;;;5033659;28;20052;-74
2021/09/09 10:20:34;;;;;;;15.00;9.85;;;34.90;38.70;;;;;;5033143;28;20030;-73
2021/09/09 10:23:04;;;;;;;14.23;9.50;;;34.50;38.70;;;;;;5032077;28;20144;-74
2021/09/09 10:25:46;;;;;;;12.13;8.18;;;34.30;39.30;;;;;;5032077;28;20076;-75
2021/09/09 10:28:48;;;;;;;14.00;8.40;;;34.10;39.10;;;;;;5032165;28;20041;-74
2021/09/09 10:31:19;;;;;;;11.35;7.68;;;34.00;38.50;;;;;;5035712;28;20029;-74
2021/09/09 10:33:47;;;;;;;11.80;7.97;;;33.90;38.60;;;;;;5032471;28;20095;-74
2021/09/09 10:36:37;;;;;;;11.13;7.57;;;33.90;38.50;;;;;;5032153;28;20033;-74
2021/09/09 10:39:03;;;;;;;11.27;7.45;;;33.80;38.40;;;;;;5033428;28;20025;-73
2021/09/09 10:41:30;;;;;;;11.07;7.50;;;33.70;38.70;;;;;;5031597;28;20495;-74
2021/09/09 10:44:01;;;;;;;13.10;7.57;;;33.70;38.50;;;;;;5032923;28;20025;-73
2021/09/09 10:46:32;;;;;;;11.02;7.68;;;33.60;38.20;;;;;;5031667;28;20120;-74
2021/09/09 10:49:08;;;;;;;11.80;8.32;;;33.60;38.60;;;;;;5031890;28;20476;-76
2021/09/09 10:51:35;;;;;;;12.98;7.80;;;33.60;39.00;;;;;;5031773;28;20022;-73
2021/09/09 10:54:00;;;;;;;13.48;7.50;;;33.70;39.00;;;;;;5044191;28;20056;-73
2021/09/09 10:56:41;;;;;;;17.13;8.40;;;33.70;39.20;;;;;;5057058;28;20103;-73
2021/09/09 10:59:21;;;;;;;10.05;7.53;;;33.90;39.60;;;;;;5055765;28;20028;-74
2021/09/09 11:01:48;;;;;;;11.10;7.32;;;34.10;39.10;;;;;;5055627;28;20375;-73
2021/09/09 11:04:35;;;;;;;11.23;7.30;;;34.20;38.80;;;;;;5056700;28;20053;-73
2021/09/09 11:07:02;;;;;;;12.07;7.38;;;34.30;38.00;;;;;;5056499;28;20025;-75
2021/09/09 11:09:29;;;;;;;10.98;7.60;;;34.30;38.00;;;;;;5056307;28;20476;-73
2021/09/09 11:12:00;;;;;;;9.85;7.25;;;34.40;37.90;;;;;;5037273;28;20031;-74
2021/09/09 11:14:28;;;;;;;10.80;6.38;;;34.20;37.40;;;;;;5035458;28;20049;-73
2021/09/09 11:16:53;;;;;;;11.82;7.82;;;33.90;37.90;;;;;;5036379;28;20022;-74
2021/09/09 11:19:22;;;;;;;10.95;7.35;;;33.90;37.90;;;;;;5036230;28;20044;-72
2021/09/09 11:21:49;;;;;;;10.32;7.25;;;34.00;38.10;;;;;;5034930;28;20407;-74
2021/09/09 11:24:16;;;;;;;10.30;6.95;;;34.00;38.30;;;;;;5035003;28;20120;-74
2021/09/09 11:26:44;;;;;;;11.18;7.47;;;33.90;37.70;;;;;;5036138;28;20021;-73
2021/09/09 11:29:10;;;;;;;11.57;7.20;;;33.90;37.90;;;;;;5034946;28;20124;-73
2021/09/09 11:31:46;;;;;;;14.10;7.85;;;34.00;38.10;;;;;;5034622;28;20067;-73
2021/09/09 11:34:12;;;;;;;11.57;7.60;;;34.10;37.90;;;;;;5035754;28;20116;-74
2021/09/09 11:36:44;;;;;;;9.30;7.25;;;34.10;37.70;;;;;;5034885;28;20810;-73
2021/09/09 11:39:14;;;;;;;11.00;7.47;;;34.00;37.80;;;;;;5054736;28;20039;-73
2021/09/09 11:41:40;;;;;;;9.15;6.93;;;33.80;38.00;;;;;;5055608;28;20032;-72
2021/09/09 11:44:07;;;;;;;12.07;7.47;;;33.50;37.80;;;;;;5055921;28;20029;-73
2021/09/09 11:46:35;;;;;;;14.95;7.65;;;33.50;37.70;;;;;;5054120;28;20021;-73
2021/09/09 11:49:07;;;;;;;11.30;7.05;;;33.20;38.10;;;;;;5055257;28;20094;-74
2021/09/09 11:51:37;;;;;;;13.75;8.20;;;33.00;38.70;;;;;;5055379;28;20057;-73
2021/09/09 11:54:08;;;;;;;12.48;8.32;;;32.90;39.10;;;;;;5054241;28;20482;-74
2021/09/09 11:56:34;;;;;;;11.93;7.38;;;32.60;38.90;;;;;;5054568;28;20029;-73
2021/09/09 11:59:03;;;;;;;10.77;7.47;;;32.20;39.60;;;;;;5053924;28;20475;-71
2021/09/09 12:01:35;;;;;;;9.75;7.07;;;31.90;39.90;;;;;;5053832;28;20025;-73
2021/09/09 12:04:01;;;;;;;13.10;7.55;;;31.60;40.40;;;;;;5051492;28;20036;-74
2021/09/09 12:06:28;;;;;;;11.75;7.05;;;31.40;41.70;;;;;;5054189;28;20498;-73
2021/09/09 12:08:54;;;;;;;13.30;7.47;;;31.10;41.70;;;;;;5053935;28;20028;-73
2021/09/09 12:11:20;;;;;;;11.90;8.40;;;30.80;41.40;;;;;;5055210;28;20417;-72
2021/09/09 12:13:46;;;;;;;12.27;7.30;;;30.40;41.70;;;;;;5053591;28;20536;-72
2021/09/09 12:16:14;;;;;;;10.20;7.55;;;30.20;41.80;;;;;;5055092;28;20033;-72
2021/09/09 12:18:41;;;;;;;9.90;7.07;;;29.90;42.20;;;;;;5054835;28;20044;-71
2021/09/09 12:21:26;;;;;;;8.88;6.90;;;29.60;42.40;;;;;;5054018;28;20029;-73
2021/09/09 12:24:04;;;;;;;12.55;7.63;;;29.50;43.20;;;;;;5053821;28;20032;-72
2021/09/09 12:26:32;;;;;;;10.23;8.05;;;29.20;43.40;;;;;;5053136;28;20124;-72
2021/09/09 12:28:57;;;;;;;11.13;7.63;;;29.00;43.20;;;;;;5054304;28;20175;-75
2021/09/09 12:31:36;;;;;;;12.35;7.63;;;28.80;43.30;;;;;;5053467;28;20468;-73